createdAt,value
2024-04-18T00:00:13.475Z,76.44
2024-04-18T00:01:13.278Z,77.34
2024-04-18T00:02:13.190Z,79.71
2024-04-18T00:03:13.263Z,77.15
2024-04-18T00:04:13.292Z,76.24
2024-04-18T00:05:13.250Z,73.31
2024-04-18T00:06:13.243Z,72.47
2024-04-18T00:07:13.204Z,71.11
2024-04-18T00:08:13.244Z,70.75
2024-04-18T00:09:13.232Z,71.86
2024-04-18T00:10:13.239Z,69.35
2024-04-18T00:11:13.245Z,68.47
2024-04-18T00:12:16.099Z,68.16
2024-04-18T00:13:13.215Z,67.26
2024-04-18T00:14:13.228Z,68.36
2024-04-18T00:15:13.303Z,68.40
2024-04-18T00:16:13.298Z,69.39
2024-04-18T00:17:13.254Z,69.34
2024-04-18T00:18:34.323Z,67.71
2024-04-18T00:19:13.224Z,67.85
2024-04-18T00:20:13.257Z,68.28
2024-04-18T00:21:49.079Z,69.04
2024-04-18T00:22:13.229Z,67.83
2024-04-18T00:23:13.232Z,68.93
2024-04-18T00:24:13.264Z,70.38
2024-04-18T00:25:13.261Z,72.49
2024-04-18T00:26:13.233Z,76.51
2024-04-18T00:27:13.253Z,75.54
2024-04-18T00:28:13.227Z,77.10
2024-04-18T00:29:13.235Z,74.02
2024-04-18T00:30:13.278Z,74.35
2024-04-18T00:31:13.243Z,74.79
2024-04-18T00:32:13.257Z,74.08
2024-04-18T00:33:13.297Z,73.24
2024-04-18T00:34:13.237Z,73.48
2024-04-18T00:35:13.260Z,74.54
2024-04-18T00:36:13.307Z,74.53
2024-04-18T00:37:13.244Z,73.21
2024-04-18T00:38:13.315Z,74.70
2024-04-18T00:39:13.247Z,74.97
2024-04-18T00:40:16.059Z,74.63
2024-04-18T00:41:13.251Z,74.72
2024-04-18T00:42:13.259Z,74.57
2024-04-18T00:43:34.262Z,75.85
2024-04-18T00:44:13.264Z,74.78
2024-04-18T00:45:13.296Z,75.45
2024-04-18T00:46:24.062Z,75.58
2024-04-18T00:47:13.277Z,74.88
2024-04-18T00:48:13.357Z,75.74
2024-04-18T00:49:13.322Z,77.29
2024-04-18T00:50:13.279Z,78.36
2024-04-18T00:51:13.313Z,80.93
2024-04-18T00:52:13.252Z,80.03
2024-04-18T00:53:13.249Z,79.93
2024-04-18T00:54:13.260Z,75.32
2024-04-18T00:55:13.263Z,78.04
2024-04-18T00:56:15.924Z,77.30
2024-04-18T00:57:13.263Z,77.30
2024-04-18T00:58:13.305Z,78.25
2024-04-18T00:59:13.258Z,76.93
2024-04-18T01:00:13.300Z,76.48
2024-04-18T01:01:13.352Z,77.17
2024-04-18T01:02:14.062Z,76.19
2024-04-18T01:03:13.381Z,74.52
2024-04-18T01:04:13.390Z,72.00
2024-04-18T01:05:16.106Z,74.15
2024-04-18T01:06:13.310Z,74.19
2024-04-18T01:07:13.270Z,74.18
2024-04-18T01:08:20.061Z,74.16
2024-04-18T01:09:13.301Z,72.77
2024-04-18T01:10:13.271Z,74.54
2024-04-18T01:11:39.624Z,74.55
2024-04-18T01:12:13.326Z,74.31
2024-04-18T01:13:13.284Z,74.99
2024-04-18T01:14:37.078Z,75.90
2024-04-18T01:15:13.353Z,74.34
2024-04-18T01:16:13.364Z,75.33
2024-04-18T01:17:16.182Z,75.98
2024-04-18T01:18:14.481Z,74.52
2024-04-18T01:19:13.326Z,75.81
2024-04-18T01:20:13.322Z,77.15
2024-04-18T01:21:13.346Z,79.03
2024-04-18T01:22:13.327Z,80.13
2024-04-18T01:23:13.337Z,81.52
2024-04-18T01:24:13.398Z,79.79
2024-04-18T01:25:13.333Z,76.24
2024-04-18T01:26:13.346Z,80.24
2024-04-18T01:27:13.352Z,77.98
2024-04-18T01:28:13.348Z,76.43
2024-04-18T01:29:13.323Z,77.52
2024-04-18T01:30:13.341Z,78.72
2024-04-18T01:31:13.326Z,77.85
2024-04-18T01:32:13.332Z,80.29
2024-04-18T01:33:14.180Z,80.30
2024-04-18T01:34:13.387Z,80.32
2024-04-18T01:35:13.332Z,80.75
2024-04-18T01:36:27.599Z,80.50
2024-04-18T01:37:13.340Z,80.43
2024-04-18T01:38:13.360Z,80.85
2024-04-18T01:39:34.420Z,81.55
2024-04-18T01:40:13.361Z,80.45
2024-04-18T01:41:13.355Z,81.11
2024-04-18T01:42:13.374Z,82.39
2024-04-18T01:43:13.351Z,83.22
2024-04-18T01:44:13.370Z,84.39
2024-04-18T01:45:13.371Z,85.63
2024-04-18T01:46:13.363Z,83.67
2024-04-18T01:47:13.393Z,80.64
2024-04-18T01:48:13.640Z,82.10
2024-04-18T01:49:13.423Z,82.80
2024-04-18T01:50:13.362Z,81.71
2024-04-18T01:51:13.397Z,82.31
2024-04-18T01:52:13.372Z,80.32
2024-04-18T01:53:13.365Z,81.18
2024-04-18T01:54:13.388Z,82.87
2024-04-18T01:55:13.371Z,83.25
2024-04-18T01:56:13.358Z,82.72
2024-04-18T01:57:13.365Z,84.78
2024-04-18T01:58:20.087Z,82.72
2024-04-18T01:59:13.365Z,82.87
2024-04-18T02:00:13.481Z,83.31
2024-04-18T02:01:31.623Z,84.58
2024-04-18T02:02:13.367Z,82.92
2024-04-18T02:03:13.559Z,83.73
2024-04-18T02:04:20.227Z,84.93
2024-04-18T02:05:13.389Z,83.07
2024-04-18T02:06:13.400Z,84.37
2024-04-18T02:07:41.087Z,86.26
2024-04-18T02:08:13.375Z,82.94
2024-04-18T02:09:13.382Z,84.73
2024-04-18T02:10:13.373Z,87.03
2024-04-18T02:11:13.466Z,91.76
2024-04-18T02:12:13.414Z,94.60
2024-04-18T02:13:13.384Z,96.39
2024-04-18T02:14:13.389Z,93.41
2024-04-18T02:15:13.411Z,93.66
2024-04-18T02:16:13.388Z,95.22
2024-04-18T02:17:13.401Z,93.62
2024-04-18T02:18:13.427Z,94.49
2024-04-18T02:19:13.391Z,94.05
2024-04-18T02:20:13.439Z,90.76
2024-04-18T02:21:13.421Z,93.78
2024-04-18T02:22:13.427Z,92.85
2024-04-18T02:23:13.398Z,92.78
2024-04-18T02:24:13.435Z,91.54
2024-04-18T02:25:13.399Z,93.09
2024-04-18T02:26:14.099Z,90.99
2024-04-18T02:27:13.429Z,89.94
2024-04-18T02:28:13.400Z,93.32
2024-04-18T02:29:34.434Z,90.26
2024-04-18T02:30:13.427Z,90.40
2024-04-18T02:31:13.421Z,90.81
2024-04-18T02:32:35.236Z,91.77
2024-04-18T02:33:13.589Z,90.48
2024-04-18T02:34:13.415Z,91.40
2024-04-18T02:35:13.419Z,92.74
2024-04-18T02:36:13.450Z,94.91
2024-04-18T02:37:13.418Z,96.15
2024-04-18T02:38:13.417Z,95.37
2024-04-18T02:39:13.455Z,94.68
2024-04-18T02:40:13.422Z,94.14
2024-04-18T02:41:13.422Z,91.90
2024-04-18T02:42:13.441Z,90.26
2024-04-18T02:43:13.425Z,89.50
2024-04-18T02:44:13.430Z,89.85
2024-04-18T02:45:13.439Z,89.42
2024-04-18T02:46:13.432Z,88.93
2024-04-18T02:47:14.146Z,86.94
2024-04-18T02:48:20.145Z,88.16
2024-04-18T02:49:13.449Z,88.20
2024-04-18T02:50:13.456Z,88.32
2024-04-18T02:51:15.142Z,88.26
2024-04-18T02:52:13.445Z,89.16
2024-04-18T02:53:13.447Z,90.36
2024-04-18T02:54:34.489Z,88.73
2024-04-18T02:55:13.448Z,88.83
2024-04-18T02:56:13.461Z,89.31
2024-04-18T02:57:41.124Z,89.88
2024-04-18T02:58:13.464Z,88.90
2024-04-18T02:59:13.459Z,89.82
2024-04-18T03:00:45.317Z,91.53
2024-04-18T03:01:13.514Z,88.93
2024-04-18T03:02:13.484Z,90.30
2024-04-18T03:03:13.509Z,91.71
2024-04-18T03:04:13.514Z,93.68
2024-04-18T03:05:13.469Z,95.37
2024-04-18T03:06:13.489Z,94.40
2024-04-18T03:07:13.474Z,92.20
2024-04-18T03:08:13.485Z,93.85
2024-04-18T03:09:13.593Z,89.29
2024-04-18T03:10:13.506Z,89.87
2024-04-18T03:11:13.499Z,89.08
2024-04-18T03:12:13.477Z,88.53
2024-04-18T03:13:13.482Z,88.68
2024-04-18T03:14:13.495Z,87.57
2024-04-18T03:15:13.521Z,88.47
2024-04-18T03:16:13.489Z,88.37
2024-04-18T03:17:13.517Z,88.23
2024-04-18T03:18:13.628Z,86.85
2024-04-18T03:19:13.563Z,87.58
2024-04-18T03:20:13.515Z,90.67
2024-04-18T03:21:13.524Z,88.65
2024-04-18T03:22:28.127Z,91.20
2024-04-18T03:23:13.746Z,91.29
2024-04-18T03:24:13.781Z,91.23
2024-04-18T03:25:34.779Z,91.55
2024-04-18T03:26:13.768Z,91.41
2024-04-18T03:27:13.798Z,92.37
2024-04-18T03:28:13.760Z,94.10
2024-04-18T03:29:13.768Z,97.45
2024-04-18T03:30:13.798Z,101.58
2024-04-18T03:31:13.778Z,99.60
2024-04-18T03:32:13.810Z,101.81
2024-04-18T03:33:13.830Z,102.25
2024-04-18T03:34:13.773Z,101.67
2024-04-18T03:35:13.776Z,102.82
2024-04-18T03:36:13.813Z,101.67
2024-04-18T03:37:13.781Z,102.09
2024-04-18T03:38:13.783Z,101.89
2024-04-18T03:39:13.854Z,102.88
2024-04-18T03:40:13.785Z,102.58
2024-04-18T03:41:19.146Z,101.84
2024-04-18T03:42:13.813Z,101.97
2024-04-18T03:43:13.792Z,102.24
2024-04-18T03:44:13.789Z,103.31
2024-04-18T03:45:13.815Z,103.24
2024-04-18T03:46:13.800Z,103.35
2024-04-18T03:47:32.202Z,103.36
2024-04-18T03:48:13.923Z,103.50
2024-04-18T03:49:13.848Z,104.18
2024-04-18T03:50:41.640Z,104.88
2024-04-18T03:51:13.890Z,103.53
2024-04-18T03:52:13.821Z,104.21
2024-04-18T03:53:49.653Z,106.23
2024-04-18T03:54:13.847Z,103.50
2024-04-18T03:55:13.864Z,104.90
2024-04-18T03:56:13.853Z,107.14
2024-04-18T03:57:13.866Z,109.46
2024-04-18T03:58:13.833Z,112.35
2024-04-18T03:59:13.832Z,112.24
2024-04-18T04:00:14.053Z,109.60
2024-04-18T04:01:13.990Z,107.72
2024-04-18T04:02:13.863Z,108.33
2024-04-18T04:03:13.868Z,107.39
2024-04-18T04:04:13.921Z,107.23
2024-04-18T04:05:13.858Z,106.88
2024-04-18T04:06:13.880Z,106.73
2024-04-18T04:07:13.843Z,105.05
2024-04-18T04:08:13.842Z,103.63
2024-04-18T04:09:13.875Z,103.06
2024-04-18T04:10:13.845Z,102.70
2024-04-18T04:11:13.877Z,103.91
2024-04-18T04:12:13.925Z,105.81
2024-04-18T04:13:13.852Z,104.01
2024-04-18T04:14:13.854Z,104.58
2024-04-18T04:15:34.882Z,104.99
2024-04-18T04:16:13.891Z,105.08
2024-04-18T04:17:13.875Z,105.45
2024-04-18T04:18:34.970Z,106.02
2024-04-18T04:19:13.948Z,105.18
2024-04-18T04:20:13.862Z,106.04
2024-04-18T04:21:13.882Z,107.57
2024-04-18T04:22:13.885Z,108.65
2024-04-18T04:23:13.875Z,108.81
2024-04-18T04:24:13.893Z,110.29
2024-04-18T04:25:13.868Z,110.49
2024-04-18T04:26:13.879Z,108.95
2024-04-18T04:27:13.902Z,110.17
2024-04-18T04:28:13.900Z,108.74
2024-04-18T04:29:13.872Z,107.99
2024-04-18T04:30:13.880Z,107.23
2024-04-18T04:31:13.873Z,108.02
2024-04-18T04:32:13.922Z,105.99
2024-04-18T04:33:13.881Z,104.38
2024-04-18T04:34:21.156Z,50.00
2024-04-18T04:35:21.156Z,50.00
2024-04-18T04:36:23.279Z,50.00
2024-04-18T04:37:21.275Z,50.00
2024-04-18T04:38:21.263Z,50.00
2024-04-18T04:39:21.281Z,50.00
2024-04-18T04:40:24.264Z,50.00
2024-04-18T04:41:21.266Z,50.00
2024-04-18T04:42:21.314Z,50.00
2024-04-18T04:43:21.285Z,50.00
2024-04-18T04:44:21.298Z,50.00
2024-04-18T04:45:21.280Z,50.00
2024-04-18T04:46:39.765Z,51.19
2024-04-18T04:47:21.270Z,51.32
2024-04-18T04:48:21.437Z,51.98
2024-04-18T04:49:42.351Z,52.30
2024-04-18T04:50:21.272Z,51.38
2024-04-18T04:51:21.282Z,52.40
2024-04-18T04:52:21.295Z,53.71
2024-04-18T04:53:21.277Z,55.55
2024-04-18T04:54:21.309Z,56.52
2024-04-18T04:55:21.284Z,58.80
2024-04-18T04:56:21.314Z,55.35
2024-04-18T04:57:21.311Z,58.03
2024-04-18T04:58:21.291Z,55.78
2024-04-18T04:59:21.293Z,59.43
2024-04-18T05:00:21.297Z,56.50
2024-04-18T05:01:21.327Z,56.27
2024-04-18T05:02:22.286Z,57.05
2024-04-18T05:03:21.358Z,56.41
2024-04-18T05:04:21.415Z,55.28
2024-04-18T05:05:36.256Z,54.54
2024-04-18T05:06:21.304Z,54.71
2024-04-18T05:07:21.327Z,55.12
2024-04-18T05:08:24.264Z,55.83
2024-04-18T05:09:21.359Z,54.73
2024-04-18T05:10:21.323Z,55.20
2024-04-18T05:11:32.286Z,55.76
2024-04-18T05:12:21.339Z,54.78
2024-04-18T05:13:21.316Z,55.72
2024-04-18T05:14:42.320Z,56.43
2024-04-18T05:15:21.323Z,54.80
2024-04-18T05:16:24.207Z,55.88
2024-04-18T05:17:21.333Z,54.99
2024-04-18T05:18:21.339Z,56.21
2024-04-18T05:19:21.331Z,58.55
2024-04-18T05:20:21.340Z,62.25
2024-04-18T05:21:21.374Z,62.02
2024-04-18T05:22:21.343Z,64.72
2024-04-18T05:23:21.346Z,66.46
2024-04-18T05:24:21.385Z,66.07
2024-04-18T05:25:21.350Z,64.69
2024-04-18T05:26:21.821Z,64.98
2024-04-18T05:27:21.436Z,65.88
2024-04-18T05:28:21.434Z,66.61
2024-04-18T05:29:21.357Z,65.36
2024-04-18T05:30:21.371Z,64.42
2024-04-18T05:31:21.815Z,59.72
2024-04-18T05:32:21.390Z,58.73
2024-04-18T05:33:21.436Z,61.23
2024-04-18T05:34:21.384Z,66.80
2024-04-18T05:35:21.367Z,64.67
2024-04-18T05:36:42.404Z,73.59
2024-04-18T05:37:23.160Z,73.79
2024-04-18T05:38:21.379Z,74.37
2024-04-18T05:39:49.373Z,78.63
2024-04-18T05:40:21.407Z,74.20
2024-04-18T05:41:21.821Z,80.35
2024-04-18T05:42:49.388Z,94.96
2024-04-18T05:43:21.397Z,74.71
2024-04-18T05:44:21.383Z,84.01
2024-04-18T05:45:21.425Z,104.39
2024-04-18T05:46:21.386Z,136.38
2024-04-18T05:47:21.476Z,181.45
2024-04-18T05:48:21.450Z,200.00
2024-04-18T05:49:21.397Z,199.20
2024-04-18T05:50:21.398Z,200.00
2024-04-18T05:51:21.429Z,198.93
2024-04-18T05:52:21.392Z,199.99
2024-04-18T05:53:21.410Z,200.19
2024-04-18T05:54:21.427Z,198.53
2024-04-18T05:55:21.411Z,199.02
2024-04-18T05:56:21.431Z,199.03
2024-04-18T05:57:21.474Z,198.02
2024-04-18T05:58:21.404Z,197.81
2024-04-18T05:59:21.448Z,198.64
2024-04-18T06:00:21.452Z,199.53
2024-04-18T06:01:26.854Z,199.76
2024-04-18T06:02:21.563Z,199.85
2024-04-18T06:03:21.584Z,200.32
2024-04-18T06:04:36.354Z,200.63
2024-04-18T06:05:21.583Z,199.92
2024-04-18T06:06:21.627Z,200.59
2024-04-18T06:07:46.231Z,201.55
2024-04-18T06:08:21.587Z,199.98
2024-04-18T06:09:21.662Z,201.16
2024-04-18T06:10:21.640Z,202.43
2024-04-18T06:11:21.613Z,204.27
2024-04-18T06:12:21.636Z,205.13
2024-04-18T06:13:21.637Z,197.90
2024-04-18T06:14:21.587Z,198.75
2024-04-18T06:15:21.635Z,199.89
2024-04-18T06:16:21.634Z,198.37
2024-04-18T06:17:21.597Z,200.00
2024-04-18T06:18:21.628Z,199.90
2024-04-18T06:19:21.605Z,200.00
2024-04-18T06:20:21.604Z,199.39
2024-04-18T06:21:21.635Z,196.62
2024-04-18T06:22:21.625Z,199.62
2024-04-18T06:23:28.296Z,198.98
2024-04-18T06:24:21.709Z,199.13
2024-04-18T06:25:21.615Z,199.25
2024-04-18T06:26:21.621Z,200.12
2024-04-18T06:27:21.623Z,201.04
2024-04-18T06:28:21.608Z,204.87
2024-04-18T06:29:37.812Z,209.65
2024-04-18T06:30:21.862Z,199.36
2024-04-18T06:31:22.306Z,201.02
2024-04-18T06:32:46.342Z,204.10
2024-04-18T06:33:22.002Z,199.34
2024-04-18T06:34:21.920Z,202.07
2024-04-18T06:35:56.199Z,208.37
2024-04-18T06:36:22.332Z,199.34
2024-04-18T06:37:21.920Z,203.02
2024-04-18T06:38:21.929Z,210.56
2024-04-18T06:39:21.951Z,222.63
2024-04-18T06:40:21.920Z,237.57
2024-04-18T06:41:21.929Z,240.55
2024-04-18T06:42:21.931Z,222.67
2024-04-18T06:43:24.883Z,206.31
2024-04-18T06:44:21.931Z,203.35
2024-04-18T06:45:21.955Z,199.29
2024-04-18T06:46:22.061Z,196.69
2024-04-18T06:47:21.970Z,191.85
2024-04-18T06:48:22.018Z,188.07
2024-04-18T06:49:21.944Z,186.89
2024-04-18T06:50:25.301Z,181.60
2024-04-18T06:51:21.951Z,180.70
2024-04-18T06:52:21.946Z,175.80
2024-04-18T06:53:21.944Z,175.31
2024-04-18T06:54:22.003Z,171.56
2024-04-18T06:55:21.954Z,169.55
2024-04-18T06:56:23.245Z,168.67
2024-04-18T06:57:28.829Z,169.26
2024-04-18T06:58:21.964Z,169.30
2024-04-18T06:59:21.964Z,168.75
2024-04-18T07:00:43.080Z,169.11
2024-04-18T07:01:22.090Z,169.36
2024-04-18T07:02:21.966Z,169.59
2024-04-18T07:03:22.076Z,170.42
2024-04-18T07:04:22.048Z,170.02
2024-04-18T07:05:21.980Z,170.10
2024-04-18T07:06:22.002Z,164.27
2024-04-18T07:07:21.975Z,158.36
2024-04-18T07:08:21.974Z,151.58
2024-04-18T07:09:22.007Z,145.25
2024-04-18T07:10:21.972Z,137.50
2024-04-18T07:11:22.045Z,130.27
2024-04-18T07:12:21.992Z,124.93
2024-04-18T07:13:21.988Z,116.86
2024-04-18T07:14:21.972Z,109.69
2024-04-18T07:15:22.003Z,103.43
2024-04-18T07:16:22.031Z,98.31
2024-04-18T07:17:21.980Z,93.10
2024-04-18T07:18:22.094Z,86.62
2024-04-18T07:19:38.340Z,83.86
2024-04-18T07:20:21.988Z,83.90
2024-04-18T07:21:22.021Z,82.01
2024-04-18T07:22:40.330Z,77.21
2024-04-18T07:23:22.003Z,79.61
2024-04-18T07:24:22.019Z,74.88
2024-04-18T07:25:29.398Z,72.42
2024-04-18T07:26:21.993Z,69.97
2024-04-18T07:27:22.022Z,62.92
2024-04-18T07:28:43.008Z,57.04
2024-04-18T07:29:22.004Z,60.19
2024-04-18T07:30:22.036Z,54.17
2024-04-18T07:31:22.020Z,48.46
2024-04-18T07:32:22.070Z,46.28
2024-04-18T07:33:22.193Z,46.67
2024-04-18T07:34:22.151Z,51.93
2024-04-18T07:35:22.011Z,52.64
2024-04-18T07:36:22.031Z,53.37
2024-04-18T07:37:22.009Z,57.80
2024-04-18T07:38:22.008Z,59.30
2024-04-18T07:39:22.118Z,58.74
2024-04-18T07:40:22.016Z,61.23
2024-04-18T07:41:22.022Z,62.84
2024-04-18T07:42:22.045Z,66.70
2024-04-18T07:43:24.872Z,68.38
2024-04-18T07:44:28.837Z,68.48
2024-04-18T07:45:22.037Z,68.61
2024-04-18T07:46:22.023Z,69.62
2024-04-18T07:47:22.066Z,72.03
2024-04-18T07:48:22.143Z,76.35
2024-04-18T07:49:22.094Z,83.33
2024-04-18T07:50:43.042Z,88.18
2024-04-18T07:51:22.079Z,88.31
2024-04-18T07:52:22.177Z,89.18
2024-04-18T07:53:38.358Z,90.77
2024-04-18T07:54:22.091Z,88.48
2024-04-18T07:55:22.836Z,89.77
2024-04-18T07:56:22.472Z,91.12
2024-04-18T07:57:22.526Z,92.95
2024-04-18T07:58:22.421Z,93.22
2024-04-18T07:59:22.647Z,93.41
2024-04-18T08:00:23.083Z,93.04
2024-04-18T08:01:23.597Z,93.51
2024-04-18T08:02:23.847Z,94.96
2024-04-18T08:03:24.260Z,94.92
2024-04-18T08:04:44.609Z,95.56
2024-04-18T08:05:25.419Z,95.60
2024-04-18T08:06:25.127Z,95.60
2024-04-18T08:07:24.722Z,90.70
2024-04-18T08:08:25.447Z,90.28
2024-04-18T08:10:24.812Z,88.44
2024-04-18T08:11:52.995Z,87.60
2024-04-18T08:12:27.857Z,89.79
2024-04-18T08:13:27.419Z,91.19
2024-04-18T08:14:27.487Z,91.43
2024-04-18T08:16:23.551Z,95.59
2024-04-18T08:17:22.661Z,95.40
2024-04-18T08:18:53.839Z,95.77
2024-04-18T08:19:22.474Z,95.65
2024-04-18T08:20:22.463Z,95.88
2024-04-18T08:21:25.866Z,95.03
2024-04-18T08:22:22.501Z,90.04
2024-04-18T08:23:22.468Z,86.41
2024-04-18T08:24:22.520Z,83.74
2024-04-18T08:25:22.471Z,82.26
2024-04-18T08:26:22.485Z,83.55
2024-04-18T08:27:22.489Z,89.23
2024-04-18T08:28:22.515Z,91.28
2024-04-18T08:29:22.488Z,94.03
2024-04-18T08:30:22.523Z,98.51
2024-04-18T08:31:22.509Z,100.75
2024-04-18T08:32:22.498Z,105.91
2024-04-18T08:33:22.536Z,108.44
2024-04-18T08:34:24.295Z,114.34
2024-04-18T08:35:22.496Z,119.47
2024-04-18T08:36:22.509Z,120.86
2024-04-18T08:37:36.872Z,125.11
2024-04-18T08:38:22.496Z,125.33
2024-04-18T08:39:22.568Z,126.56
2024-04-18T08:40:39.936Z,129.78
2024-04-18T08:41:22.596Z,125.60
2024-04-18T08:42:22.644Z,128.15
2024-04-18T08:43:37.357Z,133.12
2024-04-18T08:44:22.655Z,125.79
2024-04-18T08:45:22.696Z,129.09
2024-04-18T08:46:43.912Z,134.98
2024-04-18T08:47:22.674Z,125.75
2024-04-18T08:48:22.876Z,129.40
2024-04-18T08:49:22.768Z,135.43
2024-04-18T08:50:22.679Z,144.70
2024-04-18T08:51:22.678Z,155.34
2024-04-18T08:52:22.653Z,158.21
2024-04-18T08:53:22.688Z,157.63
2024-04-18T08:54:22.690Z,155.38
2024-04-18T08:55:22.664Z,154.78
2024-04-18T08:56:22.662Z,153.21
2024-04-18T08:57:22.765Z,151.38
2024-04-18T08:58:22.660Z,150.47
2024-04-18T08:59:22.671Z,148.74
2024-04-18T09:00:22.694Z,147.35
2024-04-18T09:01:22.668Z,145.77
2024-04-18T09:02:22.706Z,144.99
2024-04-18T09:03:22.681Z,144.17
2024-04-18T09:04:22.790Z,141.73
2024-04-18T09:05:22.739Z,139.00
2024-04-18T09:06:22.727Z,138.67
2024-04-18T09:07:22.669Z,137.66
2024-04-18T09:08:37.365Z,137.86
2024-04-18T09:09:22.739Z,137.98
2024-04-18T09:10:22.674Z,138.35
2024-04-18T09:11:43.690Z,139.04
2024-04-18T09:12:22.747Z,138.04
2024-04-18T09:13:24.262Z,138.86
2024-04-18T09:14:38.883Z,138.18
2024-04-18T09:15:22.717Z,138.07
2024-04-18T09:16:22.695Z,138.11
2024-04-18T09:17:22.778Z,131.38
2024-04-18T09:18:22.761Z,123.27
2024-04-18T09:19:22.773Z,115.23
2024-04-18T09:20:22.706Z,107.89
2024-04-18T09:21:22.719Z,102.30
2024-04-18T09:22:22.723Z,97.88
2024-04-18T09:23:22.710Z,92.05
2024-04-18T09:24:22.755Z,85.58
2024-04-18T09:25:22.724Z,78.69
2024-04-18T09:26:22.710Z,74.29
2024-04-18T09:27:23.467Z,73.56
2024-04-18T09:28:22.721Z,72.23
2024-04-18T09:29:22.715Z,69.68
2024-04-18T09:30:29.443Z,66.91
2024-04-18T09:31:30.385Z,64.99
2024-04-18T09:32:23.897Z,61.92
2024-04-18T09:33:23.458Z,60.34
2024-04-18T09:34:22.815Z,57.32
2024-04-18T09:35:22.746Z,54.67
2024-04-18T09:36:43.866Z,53.17
2024-04-18T09:37:22.744Z,53.87
2024-04-18T09:38:22.734Z,51.66
2024-04-18T09:39:43.864Z,47.63
2024-04-18T09:40:22.765Z,53.42
2024-04-18T09:41:22.742Z,50.70
2024-04-18T09:42:22.796Z,52.31
2024-04-18T09:43:22.733Z,53.65
2024-04-18T09:44:23.847Z,55.25
2024-04-18T09:45:22.937Z,59.70
2024-04-18T09:46:22.757Z,61.15
2024-04-18T09:47:22.752Z,62.77
2024-04-18T09:48:22.875Z,60.43
2024-04-18T09:49:22.852Z,55.86
2024-04-18T09:50:22.772Z,52.53
2024-04-18T09:51:22.784Z,50.76
2024-04-18T09:52:22.757Z,50.22
2024-04-18T09:53:22.754Z,50.84
2024-04-18T09:54:22.790Z,50.41
2024-04-18T09:55:25.228Z,49.98
2024-04-18T09:56:22.868Z,50.62
2024-04-18T09:57:22.851Z,50.31
2024-04-18T09:58:22.842Z,51.29
2024-04-18T09:59:22.846Z,50.04
2024-04-18T10:00:22.861Z,50.00
2024-04-18T10:01:37.516Z,50.30
2024-04-18T10:02:22.912Z,50.34
2024-04-18T10:03:22.910Z,49.73
2024-04-18T10:04:43.852Z,49.11
2024-04-18T10:05:22.873Z,50.31
2024-04-18T10:06:22.926Z,47.91
2024-04-18T10:07:51.407Z,44.78
2024-04-18T10:08:22.863Z,47.67
2024-04-18T10:09:22.909Z,41.18
2024-04-18T10:10:22.870Z,36.65
2024-04-18T10:11:22.938Z,34.19
2024-04-18T10:12:22.922Z,32.07
2024-04-18T10:13:23.062Z,36.16
2024-04-18T10:14:22.885Z,43.78
2024-04-18T10:15:22.951Z,50.00
2024-04-18T10:16:22.883Z,50.33
2024-04-18T10:17:22.923Z,49.96
2024-04-18T10:18:22.974Z,49.66
2024-04-18T10:19:23.025Z,50.81
2024-04-18T10:20:22.901Z,52.96
2024-04-18T10:21:32.031Z,55.05
2024-04-18T10:22:29.823Z,55.08
2024-04-18T10:23:38.462Z,55.16
2024-04-18T10:24:22.902Z,55.28
2024-04-18T10:25:22.905Z,56.71
2024-04-18T10:26:29.411Z,60.13
2024-04-18T10:27:22.964Z,55.67
2024-04-18T10:28:22.912Z,58.23
2024-04-18T10:29:22.906Z,62.91
2024-04-18T10:30:22.961Z,69.72
2024-04-18T10:31:22.905Z,78.03
2024-04-18T10:32:36.994Z,78.63
2024-04-18T10:33:23.025Z,78.64
2024-04-18T10:34:22.924Z,76.04
2024-04-18T10:35:22.914Z,74.22
2024-04-18T10:36:22.956Z,72.08
2024-04-18T10:37:22.924Z,70.56
2024-04-18T10:38:22.992Z,70.65
2024-04-18T10:39:22.959Z,68.93
2024-04-18T10:40:22.926Z,68.33
2024-04-18T10:41:22.915Z,64.23
2024-04-18T10:42:23.021Z,61.70
2024-04-18T10:43:22.942Z,57.91
2024-04-18T10:44:22.936Z,55.69
2024-04-18T10:45:22.961Z,54.31
2024-04-18T10:46:22.988Z,52.77
2024-04-18T10:47:23.195Z,50.47
2024-04-18T10:48:23.144Z,50.97
2024-04-18T10:49:23.140Z,50.31
2024-04-18T10:50:23.092Z,50.21
2024-04-18T10:51:23.206Z,50.00
2024-04-18T10:52:23.153Z,50.24
2024-04-18T10:53:23.193Z,50.20
2024-04-18T10:54:38.054Z,51.23
2024-04-18T10:55:23.232Z,51.25
2024-04-18T10:56:23.218Z,50.47
2024-04-18T10:57:41.483Z,50.43
2024-04-18T10:58:23.234Z,51.25
2024-04-18T10:59:23.219Z,50.25
2024-04-18T11:00:44.280Z,50.11
2024-04-18T11:01:23.289Z,51.23
2024-04-18T11:02:23.302Z,51.25
2024-04-18T11:03:23.297Z,50.92
2024-04-18T11:04:23.365Z,49.99
2024-04-18T11:05:23.248Z,49.74
2024-04-18T11:06:23.279Z,50.40
2024-04-18T11:07:23.888Z,51.06
2024-04-18T11:08:23.297Z,52.05
2024-04-18T11:09:23.307Z,50.92
2024-04-18T11:10:23.252Z,50.00
2024-04-18T11:11:23.283Z,50.97
2024-04-18T11:12:23.331Z,52.00
2024-04-18T11:13:23.249Z,52.38
2024-04-18T11:14:23.255Z,52.13
2024-04-18T11:15:23.487Z,53.80
2024-04-18T11:16:37.936Z,55.44
2024-04-18T11:17:23.344Z,55.50
2024-04-18T11:18:23.470Z,56.23
2024-04-18T11:19:25.971Z,58.17
2024-04-18T11:20:23.265Z,55.87
2024-04-18T11:21:23.357Z,58.15
2024-04-18T11:22:33.949Z,62.76
2024-04-18T11:23:29.211Z,56.16
2024-04-18T11:24:24.282Z,56.45
2024-04-18T11:25:37.937Z,60.47
2024-04-18T11:26:23.276Z,56.21
2024-04-18T11:27:23.300Z,60.32
2024-04-18T11:28:23.267Z,67.78
2024-04-18T11:29:23.268Z,78.93
2024-04-18T11:30:23.283Z,94.33
2024-04-18T11:31:23.346Z,99.33
2024-04-18T11:32:23.418Z,98.50
2024-04-18T11:33:23.343Z,96.10
2024-04-18T11:34:23.276Z,93.71
2024-04-18T11:35:23.278Z,90.70
2024-04-18T11:36:23.305Z,88.78
2024-04-18T11:37:23.298Z,88.47
2024-04-18T11:38:23.293Z,86.44
2024-04-18T11:39:23.318Z,86.13
2024-04-18T11:40:23.294Z,87.64
2024-04-18T11:41:23.291Z,88.12
2024-04-18T11:42:23.321Z,89.02
2024-04-18T11:43:23.293Z,89.20
2024-04-18T11:44:23.295Z,89.99
2024-04-18T11:45:23.368Z,89.16
2024-04-18T11:46:23.320Z,89.28
2024-04-18T11:47:31.072Z,88.80
2024-04-18T11:48:23.422Z,88.85
2024-04-18T11:49:23.320Z,88.82
2024-04-18T11:50:23.319Z,87.23
2024-04-18T11:51:23.348Z,87.86
2024-04-18T11:52:23.309Z,86.75
2024-04-18T11:53:58.948Z,87.55
2024-04-18T11:54:23.601Z,87.58
2024-04-18T11:55:23.630Z,87.73
2024-04-18T11:56:23.664Z,87.98
2024-04-18T11:57:23.755Z,87.58
2024-04-18T11:58:23.737Z,85.92
2024-04-18T11:59:23.797Z,84.38
2024-04-18T12:00:23.815Z,83.72
2024-04-18T12:01:23.802Z,83.14
2024-04-18T12:02:24.622Z,81.02
2024-04-18T12:03:23.868Z,80.76
2024-04-18T12:04:23.944Z,79.16
2024-04-18T12:05:23.867Z,78.22
2024-04-18T12:06:23.909Z,77.73
2024-04-18T12:07:23.895Z,75.41
2024-04-18T12:08:23.907Z,73.70
2024-04-18T12:09:38.577Z,71.73
2024-04-18T12:10:24.155Z,71.44
2024-04-18T12:11:24.183Z,70.21
2024-04-18T12:12:27.484Z,69.28
2024-04-18T12:13:24.181Z,67.12
2024-04-18T12:14:24.181Z,64.58
2024-04-18T12:15:45.261Z,63.50
2024-04-18T12:16:24.208Z,63.51
2024-04-18T12:17:24.189Z,62.67
2024-04-18T12:18:51.959Z,60.86
2024-04-18T12:19:24.194Z,63.50
2024-04-18T12:20:24.213Z,62.17
2024-04-18T12:21:24.208Z,60.93
2024-04-18T12:22:24.191Z,61.47
2024-04-18T12:23:24.204Z,61.10
2024-04-18T12:24:24.307Z,60.57
2024-04-18T12:25:24.194Z,61.22
2024-04-18T12:26:24.252Z,61.12
2024-04-18T12:27:24.202Z,62.41
2024-04-18T12:28:24.228Z,62.33
2024-04-18T12:29:24.238Z,63.27
2024-04-18T12:30:26.162Z,63.10
2024-04-18T12:31:24.205Z,63.13
2024-04-18T12:32:24.212Z,63.39
2024-04-18T12:33:24.435Z,63.31
2024-04-18T12:34:24.214Z,64.52
2024-04-18T12:35:24.210Z,64.85
2024-04-18T12:37:34.981Z,65.79
2024-04-18T12:38:24.241Z,65.85
2024-04-18T12:39:24.251Z,66.07
2024-04-18T12:40:38.984Z,66.48
2024-04-18T12:41:24.223Z,65.88
2024-04-18T12:42:24.266Z,66.26
2024-04-18T12:43:38.993Z,66.80
2024-04-18T12:44:24.248Z,65.89
2024-04-18T12:45:24.302Z,66.15
2024-04-18T12:46:39.024Z,66.49
2024-04-18T12:47:24.256Z,65.87
2024-04-18T12:48:24.425Z,66.12
2024-04-18T12:49:24.307Z,66.14